This is the latest recevied weather packets stored in our database for station/object JE9BHE-13. If no packets are shown the sender has not sent any weather packets the latest 10 day(s).
| Time | Temp. | Humidity | Pressure | Rain* | Wind** | Luminosity | Snow |
|---|---|---|---|---|---|---|---|
| 1778096706 | 12.78° C | 94% | 1017.7 hPa | 0 mm | - | - | - |
| 1778094186 | 13.33° C | 92% | 1017.8 hPa | 0 mm | - | - | - |
| 1778093286 | 13.89° C | 90% | 1017.7 hPa | 0 mm | - | - | - |
| 1778092567 | 13.89° C | 89% | 1017.8 hPa | 0 mm | - | - | - |
| 1778092207 | 13.89° C | 89% | 1017.6 hPa | 0 mm | - | - | - |
| 1778091486 | 15° C | 86% | 1017.8 hPa | 0 mm | - | - | - |
| 1778090586 | 15.56° C | 83% | 1017.7 hPa | 0 mm | - | - | - |
| 1778089326 | 18.33° C | 71% | 1017.5 hPa | 0 mm | - | - | - |
| 1778088968 | 18.33° C | 72% | 1017.8 hPa | 0 mm | - | - | - |
| 1778086986 | 18.33° C | 71% | 1018 hPa | 0 mm | - | - | - |
| 1778086446 | 18.33° C | 72% | 1017.8 hPa | 0 mm | - | - | - |
| 1778086087 | 17.78° C | 73% | 1018.1 hPa | 0 mm | - | - | - |
| 1778084466 | 18.33° C | 71% | 1018.1 hPa | 0 mm | - | - | - |
| 1778083567 | 18.33° C | 72% | 1018.2 hPa | 0 mm | - | - | - |
| 1778082487 | 18.33° C | 71% | 1018.1 hPa | 0 mm | - | - | - |
| 1778079246 | 18.33° C | 72% | 1018.2 hPa | 0 mm | - | - | - |
| 1778078886 | 18.33° C | 71% | 1018.1 hPa | 0 mm | - | - | - |
| 1778078706 | 18.89° C | 71% | 1018.4 hPa | 0 mm | - | - | - |
| 1778078526 | 18.89° C | 71% | 1018.3 hPa | 0 mm | - | - | - |
| 1778076726 | 18.33° C | 72% | 1018.2 hPa | 0 mm | - | - | - |
| 1778076546 | 18.89° C | 71% | 1018.3 hPa | 0 mm | - | - | - |
| 1778075466 | 18.33° C | 73% | 1018.1 hPa | 0 mm | - | - | - |
| 1778075286 | 18.33° C | 73% | 1018 hPa | 0 mm | - | - | - |
| 1778075106 | 18.33° C | 73% | 1018.3 hPa | 0 mm | - | - | - |
| 1778073126 | 18.33° C | 73% | 1018.2 hPa | 0 mm | - | - | - |
* Rain latest hour (hover to see other rain measurements)
** Current wind speed in m/s (hover to see current wind gust speed)